sensor_id;sensor_type;location;lat;lon;timestamp;P1;durP1;ratioP1;P2;durP2;ratioP2
40339;SDS011;26044;50.864;20.658;2022-08-19T00:00:07;28.90;;;13.48;;
40339;SDS011;26044;50.864;20.658;2022-08-19T00:08:23;25.98;;;14.43;;
40339;SDS011;26044;50.864;20.658;2022-08-19T00:10:50;23.38;;;12.98;;
40339;SDS011;26044;50.864;20.658;2022-08-19T00:13:17;25.08;;;13.27;;
40339;SDS011;26044;50.864;20.658;2022-08-19T00:15:44;25.15;;;13.93;;
40339;SDS011;26044;50.864;20.658;2022-08-19T00:18:11;23.98;;;13.32;;
40339;SDS011;26044;50.864;20.658;2022-08-19T00:20:38;27.88;;;13.98;;
40339;SDS011;26044;50.864;20.658;2022-08-19T00:23:06;26.77;;;13.93;;
40339;SDS011;26044;50.864;20.658;2022-08-19T00:25:33;25.27;;;13.60;;
40339;SDS011;26044;50.864;20.658;2022-08-19T00:28:00;24.90;;;13.93;;
40339;SDS011;26044;50.864;20.658;2022-08-19T00:30:26;25.95;;;12.70;;
40339;SDS011;26044;50.864;20.658;2022-08-19T00:32:53;28.52;;;13.43;;
40339;SDS011;26044;50.864;20.658;2022-08-19T00:35:21;31.58;;;15.05;;
40339;SDS011;26044;50.864;20.658;2022-08-19T00:37:49;26.00;;;12.88;;
40339;SDS011;26044;50.864;20.658;2022-08-19T00:40:17;29.60;;;14.40;;
40339;SDS011;26044;50.864;20.658;2022-08-19T00:42:45;30.27;;;13.57;;
40339;SDS011;26044;50.864;20.658;2022-08-19T00:45:19;26.27;;;13.50;;
40339;SDS011;26044;50.864;20.658;2022-08-19T00:47:48;24.27;;;13.07;;
40339;SDS011;26044;50.864;20.658;2022-08-19T00:50:16;27.30;;;14.25;;
40339;SDS011;26044;50.864;20.658;2022-08-19T00:52:49;26.42;;;13.93;;
40339;SDS011;26044;50.864;20.658;2022-08-19T00:55:19;25.15;;;13.63;;
40339;SDS011;26044;50.864;20.658;2022-08-19T00:57:52;25.75;;;13.80;;
40339;SDS011;26044;50.864;20.658;2022-08-19T01:00:22;24.10;;;13.30;;
40339;SDS011;26044;50.864;20.658;2022-08-19T01:02:50;27.08;;;13.75;;
40339;SDS011;26044;50.864;20.658;2022-08-19T01:05:23;25.60;;;13.63;;
40339;SDS011;26044;50.864;20.658;2022-08-19T01:07:54;24.70;;;13.13;;
40339;SDS011;26044;50.864;20.658;2022-08-19T01:10:24;23.33;;;12.25;;
40339;SDS011;26044;50.864;20.658;2022-08-19T01:12:53;25.52;;;13.50;;
40339;SDS011;26044;50.864;20.658;2022-08-19T01:22:16;24.88;;;13.57;;
40339;SDS011;26044;50.864;20.658;2022-08-19T01:24:58;26.02;;;13.82;;
40339;SDS011;26044;50.864;20.658;2022-08-19T01:27:26;26.05;;;14.02;;
40339;SDS011;26044;50.864;20.658;2022-08-19T01:30:00;25.52;;;13.60;;
40339;SDS011;26044;50.864;20.658;2022-08-19T01:32:27;24.10;;;13.07;;
40339;SDS011;26044;50.864;20.658;2022-08-19T01:34:59;28.50;;;12.93;;
40339;SDS011;26044;50.864;20.658;2022-08-19T01:37:29;25.95;;;13.52;;
40339;SDS011;26044;50.864;20.658;2022-08-19T01:39:56;27.27;;;13.38;;
40339;SDS011;26044;50.864;20.658;2022-08-19T01:42:24;29.08;;;13.38;;
40339;SDS011;26044;50.864;20.658;2022-08-19T01:44:56;25.70;;;13.88;;
40339;SDS011;26044;50.864;20.658;2022-08-19T01:47:23;27.30;;;13.05;;
40339;SDS011;26044;50.864;20.658;2022-08-19T01:49:50;27.92;;;13.70;;
40339;SDS011;26044;50.864;20.658;2022-08-19T01:52:17;26.13;;;13.38;;
40339;SDS011;26044;50.864;20.658;2022-08-19T01:54:43;24.33;;;13.60;;
40339;SDS011;26044;50.864;20.658;2022-08-19T01:57:11;31.83;;;16.45;;
40339;SDS011;26044;50.864;20.658;2022-08-19T02:02:08;25.70;;;14.07;;
40339;SDS011;26044;50.864;20.658;2022-08-19T02:04:35;24.45;;;13.73;;
40339;SDS011;26044;50.864;20.658;2022-08-19T02:07:05;23.92;;;13.63;;
40339;SDS011;26044;50.864;20.658;2022-08-19T02:09:34;25.60;;;14.35;;
40339;SDS011;26044;50.864;20.658;2022-08-19T02:12:01;23.58;;;13.32;;
40339;SDS011;26044;50.864;20.658;2022-08-19T02:14:28;24.27;;;13.63;;
40339;SDS011;26044;50.864;20.658;2022-08-19T02:16:55;26.05;;;13.77;;
40339;SDS011;26044;50.864;20.658;2022-08-19T02:19:22;25.95;;;14.02;;
40339;SDS011;26044;50.864;20.658;2022-08-19T02:21:48;22.77;;;13.48;;
40339;SDS011;26044;50.864;20.658;2022-08-19T02:24:15;24.92;;;13.43;;
40339;SDS011;26044;50.864;20.658;2022-08-19T02:26:42;23.10;;;13.25;;
40339;SDS011;26044;50.864;20.658;2022-08-19T02:29:09;24.20;;;12.93;;
40339;SDS011;26044;50.864;20.658;2022-08-19T02:31:35;24.35;;;13.32;;
40339;SDS011;26044;50.864;20.658;2022-08-19T02:34:09;23.23;;;13.23;;
40339;SDS011;26044;50.864;20.658;2022-08-19T02:36:36;24.85;;;13.32;;
40339;SDS011;26044;50.864;20.658;2022-08-19T02:45:37;25.10;;;13.20;;
40339;SDS011;26044;50.864;20.658;2022-08-19T02:48:07;26.45;;;13.52;;
40339;SDS011;26044;50.864;20.658;2022-08-19T02:50:46;28.35;;;13.52;;
40339;SDS011;26044;50.864;20.658;2022-08-19T02:53:26;23.35;;;12.50;;
40339;SDS011;26044;50.864;20.658;2022-08-19T02:55:54;25.35;;;13.38;;
40339;SDS011;26044;50.864;20.658;2022-08-19T02:58:21;25.90;;;13.10;;
40339;SDS011;26044;50.864;20.658;2022-08-19T03:03:21;25.95;;;13.55;;
40339;SDS011;26044;50.864;20.658;2022-08-19T03:05:48;24.42;;;13.82;;
40339;SDS011;26044;50.864;20.658;2022-08-19T03:08:22;26.08;;;13.38;;
40339;SDS011;26044;50.864;20.658;2022-08-19T03:10:50;32.75;;;14.45;;
40339;SDS011;26044;50.864;20.658;2022-08-19T03:13:19;26.55;;;13.35;;
40339;SDS011;26044;50.864;20.658;2022-08-19T03:15:52;26.42;;;13.50;;
40339;SDS011;26044;50.864;20.658;2022-08-19T03:18:21;28.70;;;14.65;;
40339;SDS011;26044;50.864;20.658;2022-08-19T03:20:49;25.92;;;13.93;;
40339;SDS011;26044;50.864;20.658;2022-08-19T03:23:20;25.02;;;13.05;;
40339;SDS011;26044;50.864;20.658;2022-08-19T03:25:48;27.80;;;13.90;;
40339;SDS011;26044;50.864;20.658;2022-08-19T03:28:37;26.30;;;13.68;;
40339;SDS011;26044;50.864;20.658;2022-08-19T03:31:05;27.95;;;15.27;;
40339;SDS011;26044;50.864;20.658;2022-08-19T03:33:59;24.50;;;13.88;;
40339;SDS011;26044;50.864;20.658;2022-08-19T03:36:28;24.35;;;14.10;;
40339;SDS011;26044;50.864;20.658;2022-08-19T03:38:56;25.45;;;13.43;;
40339;SDS011;26044;50.864;20.658;2022-08-19T03:41:29;23.83;;;13.38;;
40339;SDS011;26044;50.864;20.658;2022-08-19T03:44:10;25.98;;;14.52;;
40339;SDS011;26044;50.864;20.658;2022-08-19T03:46:43;28.00;;;14.60;;
40339;SDS011;26044;50.864;20.658;2022-08-19T03:49:11;28.45;;;13.73;;
40339;SDS011;26044;50.864;20.658;2022-08-19T03:51:41;27.13;;;14.68;;
40339;SDS011;26044;50.864;20.658;2022-08-19T03:54:10;24.48;;;14.30;;
40339;SDS011;26044;50.864;20.658;2022-08-19T03:56:39;25.80;;;14.02;;
40339;SDS011;26044;50.864;20.658;2022-08-19T03:59:11;28.90;;;14.10;;
40339;SDS011;26044;50.864;20.658;2022-08-19T04:01:40;26.40;;;14.60;;
40339;SDS011;26044;50.864;20.658;2022-08-19T04:04:07;27.40;;;13.85;;
40339;SDS011;26044;50.864;20.658;2022-08-19T04:06:36;26.77;;;13.73;;
40339;SDS011;26044;50.864;20.658;2022-08-19T04:09:06;26.70;;;13.88;;
40339;SDS011;26044;50.864;20.658;2022-08-19T04:11:37;26.27;;;14.20;;
40339;SDS011;26044;50.864;20.658;2022-08-19T04:14:11;25.98;;;13.93;;
40339;SDS011;26044;50.864;20.658;2022-08-19T04:16:40;23.35;;;13.98;;
40339;SDS011;26044;50.864;20.658;2022-08-19T04:19:07;25.92;;;15.18;;
40339;SDS011;26044;50.864;20.658;2022-08-19T04:21:34;28.83;;;14.23;;
40339;SDS011;26044;50.864;20.658;2022-08-19T04:24:01;24.00;;;13.55;;
40339;SDS011;26044;50.864;20.658;2022-08-19T04:26:33;29.77;;;15.23;;
40339;SDS011;26044;50.864;20.658;2022-08-19T04:29:07;28.00;;;16.88;;
40339;SDS011;26044;50.864;20.658;2022-08-19T04:31:38;41.30;;;24.15;;
40339;SDS011;26044;50.864;20.658;2022-08-19T04:34:07;60.27;;;32.30;;
40339;SDS011;26044;50.864;20.658;2022-08-19T04:36:39;60.83;;;34.42;;
40339;SDS011;26044;50.864;20.658;2022-08-19T04:39:09;56.65;;;31.20;;
40339;SDS011;26044;50.864;20.658;2022-08-19T04:41:38;41.70;;;25.70;;
40339;SDS011;26044;50.864;20.658;2022-08-19T04:44:55;30.48;;;17.73;;
40339;SDS011;26044;50.864;20.658;2022-08-19T05:01:44;26.52;;;14.48;;
40339;SDS011;26044;50.864;20.658;2022-08-19T05:12:08;26.70;;;14.95;;
40339;SDS011;26044;50.864;20.658;2022-08-19T05:14:41;25.83;;;15.37;;
40339;SDS011;26044;50.864;20.658;2022-08-19T05:17:08;36.15;;;15.63;;
40339;SDS011;26044;50.864;20.658;2022-08-19T05:19:55;26.90;;;14.40;;
40339;SDS011;26044;50.864;20.658;2022-08-19T05:22:41;31.27;;;14.98;;
40339;SDS011;26044;50.864;20.658;2022-08-19T05:25:12;25.02;;;13.70;;
40339;SDS011;26044;50.864;20.658;2022-08-19T05:27:41;24.92;;;14.48;;
40339;SDS011;26044;50.864;20.658;2022-08-19T05:30:09;26.70;;;13.68;;
40339;SDS011;26044;50.864;20.658;2022-08-19T05:32:37;28.38;;;13.80;;
40339;SDS011;26044;50.864;20.658;2022-08-19T05:35:05;26.02;;;13.85;;
40339;SDS011;26044;50.864;20.658;2022-08-19T05:37:32;25.52;;;13.90;;
40339;SDS011;26044;50.864;20.658;2022-08-19T05:40:00;28.58;;;13.93;;
40339;SDS011;26044;50.864;20.658;2022-08-19T05:42:27;28.17;;;13.27;;
40339;SDS011;26044;50.864;20.658;2022-08-19T05:44:54;25.20;;;13.30;;
40339;SDS011;26044;50.864;20.658;2022-08-19T05:47:23;27.23;;;14.07;;
40339;SDS011;26044;50.864;20.658;2022-08-19T05:49:49;28.02;;;14.70;;
40339;SDS011;26044;50.864;20.658;2022-08-19T05:52:17;25.00;;;12.77;;
40339;SDS011;26044;50.864;20.658;2022-08-19T05:54:51;27.70;;;14.00;;
40339;SDS011;26044;50.864;20.658;2022-08-19T05:57:21;25.63;;;13.60;;
40339;SDS011;26044;50.864;20.658;2022-08-19T05:59:48;25.48;;;13.55;;
40339;SDS011;26044;50.864;20.658;2022-08-19T06:02:23;27.60;;;13.25;;
40339;SDS011;26044;50.864;20.658;2022-08-19T06:04:50;25.02;;;12.82;;
40339;SDS011;26044;50.864;20.658;2022-08-19T06:07:16;27.27;;;12.98;;
40339;SDS011;26044;50.864;20.658;2022-08-19T06:09:43;23.80;;;11.70;;
40339;SDS011;26044;50.864;20.658;2022-08-19T06:12:25;26.35;;;12.55;;
40339;SDS011;26044;50.864;20.658;2022-08-19T06:14:59;24.13;;;12.20;;
40339;SDS011;26044;50.864;20.658;2022-08-19T06:17:28;26.50;;;11.80;;
40339;SDS011;26044;50.864;20.658;2022-08-19T06:19:57;27.17;;;12.20;;
40339;SDS011;26044;50.864;20.658;2022-08-19T06:22:24;23.38;;;12.00;;
40339;SDS011;26044;50.864;20.658;2022-08-19T06:24:51;24.50;;;11.38;;
40339;SDS011;26044;50.864;20.658;2022-08-19T06:27:20;28.70;;;11.75;;
40339;SDS011;26044;50.864;20.658;2022-08-19T06:29:47;22.77;;;11.82;;
40339;SDS011;26044;50.864;20.658;2022-08-19T06:32:14;25.50;;;11.85;;
40339;SDS011;26044;50.864;20.658;2022-08-19T06:34:42;23.52;;;11.70;;
40339;SDS011;26044;50.864;20.658;2022-08-19T06:37:10;24.95;;;11.63;;
40339;SDS011;26044;50.864;20.658;2022-08-19T06:39:38;23.33;;;12.00;;
40339;SDS011;26044;50.864;20.658;2022-08-19T06:42:06;24.50;;;11.33;;
40339;SDS011;26044;50.864;20.658;2022-08-19T06:44:38;25.85;;;11.65;;
40339;SDS011;26044;50.864;20.658;2022-08-19T06:47:09;20.63;;;11.40;;
40339;SDS011;26044;50.864;20.658;2022-08-19T06:49:57;24.55;;;10.90;;
40339;SDS011;26044;50.864;20.658;2022-08-19T06:52:31;29.40;;;11.07;;
40339;SDS011;26044;50.864;20.658;2022-08-19T06:55:04;24.95;;;10.63;;
40339;SDS011;26044;50.864;20.658;2022-08-19T06:57:32;20.13;;;9.70;;
40339;SDS011;26044;50.864;20.658;2022-08-19T06:59:59;22.45;;;9.77;;
40339;SDS011;26044;50.864;20.658;2022-08-19T07:02:27;21.65;;;9.95;;
40339;SDS011;26044;50.864;20.658;2022-08-19T07:04:54;18.13;;;8.70;;
40339;SDS011;26044;50.864;20.658;2022-08-19T07:07:24;24.05;;;10.10;;
40339;SDS011;26044;50.864;20.658;2022-08-19T07:09:51;19.70;;;9.60;;
40339;SDS011;26044;50.864;20.658;2022-08-19T07:12:28;20.35;;;8.90;;
40339;SDS011;26044;50.864;20.658;2022-08-19T07:15:01;19.42;;;9.60;;
40339;SDS011;26044;50.864;20.658;2022-08-19T07:17:29;19.70;;;8.77;;
40339;SDS011;26044;50.864;20.658;2022-08-19T07:19:59;17.48;;;8.93;;
40339;SDS011;26044;50.864;20.658;2022-08-19T07:22:32;23.85;;;9.10;;
40339;SDS011;26044;50.864;20.658;2022-08-19T07:25:00;19.88;;;9.25;;
40339;SDS011;26044;50.864;20.658;2022-08-19T07:27:30;16.55;;;8.43;;
40339;SDS011;26044;50.864;20.658;2022-08-19T07:29:59;19.27;;;8.50;;
40339;SDS011;26044;50.864;20.658;2022-08-19T07:32:26;25.08;;;9.40;;
40339;SDS011;26044;50.864;20.658;2022-08-19T07:34:53;26.02;;;9.50;;
40339;SDS011;26044;50.864;20.658;2022-08-19T07:37:22;25.42;;;8.73;;
40339;SDS011;26044;50.864;20.658;2022-08-19T07:39:51;17.38;;;8.02;;
40339;SDS011;26044;50.864;20.658;2022-08-19T07:42:18;15.93;;;8.20;;
40339;SDS011;26044;50.864;20.658;2022-08-19T07:44:47;16.40;;;7.68;;
40339;SDS011;26044;50.864;20.658;2022-08-19T07:47:16;14.95;;;7.35;;
40339;SDS011;26044;50.864;20.658;2022-08-19T07:50:06;16.85;;;8.20;;
40339;SDS011;26044;50.864;20.658;2022-08-19T07:52:35;16.42;;;8.00;;
40339;SDS011;26044;50.864;20.658;2022-08-19T07:57:53;16.65;;;7.50;;
40339;SDS011;26044;50.864;20.658;2022-08-19T08:00:20;16.55;;;7.80;;
40339;SDS011;26044;50.864;20.658;2022-08-19T08:05:20;17.63;;;7.93;;
40339;SDS011;26044;50.864;20.658;2022-08-19T08:08:09;17.05;;;8.00;;
40339;SDS011;26044;50.864;20.658;2022-08-19T08:11:10;15.88;;;8.05;;
40339;SDS011;26044;50.864;20.658;2022-08-19T08:13:40;18.48;;;7.60;;
40339;SDS011;26044;50.864;20.658;2022-08-19T08:16:07;16.90;;;7.43;;
40339;SDS011;26044;50.864;20.658;2022-08-19T08:18:39;16.20;;;7.05;;
40339;SDS011;26044;50.864;20.658;2022-08-19T08:21:08;14.50;;;7.57;;
40339;SDS011;26044;50.864;20.658;2022-08-19T08:23:35;15.75;;;7.18;;
40339;SDS011;26044;50.864;20.658;2022-08-19T08:26:04;18.33;;;6.90;;
40339;SDS011;26044;50.864;20.658;2022-08-19T08:28:31;16.08;;;7.00;;
40339;SDS011;26044;50.864;20.658;2022-08-19T08:30:58;14.10;;;6.97;;
40339;SDS011;26044;50.864;20.658;2022-08-19T08:33:25;20.63;;;6.90;;
40339;SDS011;26044;50.864;20.658;2022-08-19T08:35:59;16.58;;;7.55;;
40339;SDS011;26044;50.864;20.658;2022-08-19T08:41:10;18.45;;;8.20;;
40339;SDS011;26044;50.864;20.658;2022-08-19T08:43:49;17.73;;;7.78;;
40339;SDS011;26044;50.864;20.658;2022-08-19T08:46:20;15.77;;;6.85;;
40339;SDS011;26044;50.864;20.658;2022-08-19T08:51:41;18.08;;;7.13;;
40339;SDS011;26044;50.864;20.658;2022-08-19T08:54:26;15.85;;;7.63;;
40339;SDS011;26044;50.864;20.658;2022-08-19T08:57:02;16.88;;;7.10;;
40339;SDS011;26044;50.864;20.658;2022-08-19T08:59:35;19.00;;;7.18;;
40339;SDS011;26044;50.864;20.658;2022-08-19T09:02:05;13.50;;;6.53;;
40339;SDS011;26044;50.864;20.658;2022-08-19T09:04:31;13.68;;;6.80;;
40339;SDS011;26044;50.864;20.658;2022-08-19T09:12:54;15.00;;;6.90;;
40339;SDS011;26044;50.864;20.658;2022-08-19T09:15:36;16.10;;;6.90;;
40339;SDS011;26044;50.864;20.658;2022-08-19T09:18:12;15.68;;;7.53;;
40339;SDS011;26044;50.864;20.658;2022-08-19T09:20:44;14.38;;;6.60;;
40339;SDS011;26044;50.864;20.658;2022-08-19T09:23:13;14.10;;;6.78;;
40339;SDS011;26044;50.864;20.658;2022-08-19T09:25:40;15.35;;;7.45;;
40339;SDS011;26044;50.864;20.658;2022-08-19T09:28:07;13.38;;;6.88;;
40339;SDS011;26044;50.864;20.658;2022-08-19T09:30:47;14.40;;;6.82;;
40339;SDS011;26044;50.864;20.658;2022-08-19T09:33:17;14.70;;;7.03;;
40339;SDS011;26044;50.864;20.658;2022-08-19T09:35:46;17.88;;;8.05;;
40339;SDS011;26044;50.864;20.658;2022-08-19T09:38:19;16.55;;;7.80;;
40339;SDS011;26044;50.864;20.658;2022-08-19T09:40:46;18.42;;;8.10;;
40339;SDS011;26044;50.864;20.658;2022-08-19T09:43:13;20.05;;;8.02;;
40339;SDS011;26044;50.864;20.658;2022-08-19T09:45:58;14.88;;;7.50;;
40339;SDS011;26044;50.864;20.658;2022-08-19T09:48:26;16.90;;;7.80;;
40339;SDS011;26044;50.864;20.658;2022-08-19T09:50:53;15.73;;;8.15;;
40339;SDS011;26044;50.864;20.658;2022-08-19T09:53:20;15.50;;;7.50;;
40339;SDS011;26044;50.864;20.658;2022-08-19T09:55:50;15.38;;;7.13;;
40339;SDS011;26044;50.864;20.658;2022-08-19T09:58:17;14.48;;;7.47;;
40339;SDS011;26044;50.864;20.658;2022-08-19T10:00:51;15.40;;;7.30;;
40339;SDS011;26044;50.864;20.658;2022-08-19T10:03:18;15.77;;;7.60;;
40339;SDS011;26044;50.864;20.658;2022-08-19T10:05:50;14.00;;;7.53;;
40339;SDS011;26044;50.864;20.658;2022-08-19T10:08:21;17.58;;;7.85;;
40339;SDS011;26044;50.864;20.658;2022-08-19T10:10:52;16.80;;;7.53;;
40339;SDS011;26044;50.864;20.658;2022-08-19T10:13:22;16.88;;;8.00;;
40339;SDS011;26044;50.864;20.658;2022-08-19T10:15:52;17.50;;;8.05;;
40339;SDS011;26044;50.864;20.658;2022-08-19T10:18:22;15.00;;;7.70;;
40339;SDS011;26044;50.864;20.658;2022-08-19T10:23:20;17.65;;;7.90;;
40339;SDS011;26044;50.864;20.658;2022-08-19T10:25:47;19.10;;;9.13;;
40339;SDS011;26044;50.864;20.658;2022-08-19T10:28:15;12.97;;;7.07;;
40339;SDS011;26044;50.864;20.658;2022-08-19T10:30:44;14.07;;;7.93;;
40339;SDS011;26044;50.864;20.658;2022-08-19T10:33:12;17.20;;;8.68;;
40339;SDS011;26044;50.864;20.658;2022-08-19T10:35:40;19.90;;;8.60;;
40339;SDS011;26044;50.864;20.658;2022-08-19T10:38:22;17.02;;;8.32;;
40339;SDS011;26044;50.864;20.658;2022-08-19T10:40:58;16.95;;;8.20;;
40339;SDS011;26044;50.864;20.658;2022-08-19T10:43:36;22.50;;;8.32;;
40339;SDS011;26044;50.864;20.658;2022-08-19T10:46:05;16.65;;;8.13;;
40339;SDS011;26044;50.864;20.658;2022-08-19T10:48:39;17.77;;;8.43;;
40339;SDS011;26044;50.864;20.658;2022-08-19T10:51:06;16.60;;;8.57;;
40339;SDS011;26044;50.864;20.658;2022-08-19T10:53:53;16.50;;;7.68;;
40339;SDS011;26044;50.864;20.658;2022-08-19T10:56:21;18.95;;;8.40;;
40339;SDS011;26044;50.864;20.658;2022-08-19T10:59:07;20.80;;;9.13;;
40339;SDS011;26044;50.864;20.658;2022-08-19T11:01:35;15.88;;;7.95;;
40339;SDS011;26044;50.864;20.658;2022-08-19T11:04:03;14.57;;;7.85;;
40339;SDS011;26044;50.864;20.658;2022-08-19T11:06:31;17.33;;;8.43;;
40339;SDS011;26044;50.864;20.658;2022-08-19T11:08:58;19.08;;;7.78;;
40339;SDS011;26044;50.864;20.658;2022-08-19T11:11:26;17.85;;;8.45;;
40339;SDS011;26044;50.864;20.658;2022-08-19T11:13:54;17.47;;;8.77;;
40339;SDS011;26044;50.864;20.658;2022-08-19T11:16:23;19.17;;;8.52;;
40339;SDS011;26044;50.864;20.658;2022-08-19T11:18:54;16.23;;;7.88;;
40339;SDS011;26044;50.864;20.658;2022-08-19T11:23:59;16.15;;;8.25;;
40339;SDS011;26044;50.864;20.658;2022-08-19T11:26:30;17.02;;;7.78;;
40339;SDS011;26044;50.864;20.658;2022-08-19T11:28:58;16.45;;;8.27;;
40339;SDS011;26044;50.864;20.658;2022-08-19T11:31:26;17.75;;;8.63;;
40339;SDS011;26044;50.864;20.658;2022-08-19T11:33:59;18.67;;;8.52;;
40339;SDS011;26044;50.864;20.658;2022-08-19T11:36:27;16.92;;;7.97;;
40339;SDS011;26044;50.864;20.658;2022-08-19T11:38:55;19.42;;;8.90;;
40339;SDS011;26044;50.864;20.658;2022-08-19T11:41:23;17.73;;;8.02;;
40339;SDS011;26044;50.864;20.658;2022-08-19T11:43:51;16.40;;;7.90;;
40339;SDS011;26044;50.864;20.658;2022-08-19T11:46:21;16.50;;;8.02;;
40339;SDS011;26044;50.864;20.658;2022-08-19T11:51:18;17.38;;;7.82;;
40339;SDS011;26044;50.864;20.658;2022-08-19T11:53:48;19.35;;;8.77;;
40339;SDS011;26044;50.864;20.658;2022-08-19T11:56:17;17.55;;;8.75;;
40339;SDS011;26044;50.864;20.658;2022-08-19T11:58:45;15.60;;;7.27;;
40339;SDS011;26044;50.864;20.658;2022-08-19T12:01:13;14.60;;;7.43;;
40339;SDS011;26044;50.864;20.658;2022-08-19T12:03:43;17.48;;;7.88;;
40339;SDS011;26044;50.864;20.658;2022-08-19T12:08:43;15.30;;;7.85;;
40339;SDS011;26044;50.864;20.658;2022-08-19T12:11:11;17.48;;;7.53;;
40339;SDS011;26044;50.864;20.658;2022-08-19T12:13:46;15.27;;;7.43;;
40339;SDS011;26044;50.864;20.658;2022-08-19T12:16:21;14.73;;;7.10;;
40339;SDS011;26044;50.864;20.658;2022-08-19T12:18:50;15.43;;;8.00;;
40339;SDS011;26044;50.864;20.658;2022-08-19T12:21:25;14.02;;;6.47;;
40339;SDS011;26044;50.864;20.658;2022-08-19T12:23:55;17.33;;;8.05;;
40339;SDS011;26044;50.864;20.658;2022-08-19T12:26:24;16.67;;;7.88;;
40339;SDS011;26044;50.864;20.658;2022-08-19T12:28:52;14.55;;;7.25;;
40339;SDS011;26044;50.864;20.658;2022-08-19T12:31:19;16.52;;;7.53;;
40339;SDS011;26044;50.864;20.658;2022-08-19T12:33:47;14.25;;;7.75;;
40339;SDS011;26044;50.864;20.658;2022-08-19T12:36:15;15.93;;;7.65;;
40339;SDS011;26044;50.864;20.658;2022-08-19T12:38:42;15.02;;;7.47;;
40339;SDS011;26044;50.864;20.658;2022-08-19T12:41:11;18.85;;;8.70;;
40339;SDS011;26044;50.864;20.658;2022-08-19T12:43:39;15.57;;;7.47;;
40339;SDS011;26044;50.864;20.658;2022-08-19T12:46:07;15.82;;;7.85;;
40339;SDS011;26044;50.864;20.658;2022-08-19T12:48:37;15.30;;;7.60;;
40339;SDS011;26044;50.864;20.658;2022-08-19T12:51:06;16.60;;;7.55;;
40339;SDS011;26044;50.864;20.658;2022-08-19T12:53:41;19.33;;;8.23;;
40339;SDS011;26044;50.864;20.658;2022-08-19T12:56:09;15.55;;;7.25;;
40339;SDS011;26044;50.864;20.658;2022-08-19T12:58:38;16.45;;;8.50;;
40339;SDS011;26044;50.864;20.658;2022-08-19T13:01:06;15.75;;;8.07;;
40339;SDS011;26044;50.864;20.658;2022-08-19T13:03:35;16.20;;;7.55;;
40339;SDS011;26044;50.864;20.658;2022-08-19T13:06:06;14.35;;;7.28;;
40339;SDS011;26044;50.864;20.658;2022-08-19T13:08:34;18.23;;;7.78;;
40339;SDS011;26044;50.864;20.658;2022-08-19T13:11:12;16.83;;;7.78;;
40339;SDS011;26044;50.864;20.658;2022-08-19T13:13:41;18.80;;;7.35;;
40339;SDS011;26044;50.864;20.658;2022-08-19T13:16:09;17.20;;;7.72;;
40339;SDS011;26044;50.864;20.658;2022-08-19T13:18:38;14.45;;;7.57;;
40339;SDS011;26044;50.864;20.658;2022-08-19T13:21:07;12.88;;;6.65;;
40339;SDS011;26044;50.864;20.658;2022-08-19T13:26:03;16.80;;;7.57;;
40339;SDS011;26044;50.864;20.658;2022-08-19T13:28:32;17.23;;;7.57;;
40339;SDS011;26044;50.864;20.658;2022-08-19T13:31:19;15.82;;;7.80;;
40339;SDS011;26044;50.864;20.658;2022-08-19T13:34:06;17.42;;;7.22;;
40339;SDS011;26044;50.864;20.658;2022-08-19T13:36:35;17.88;;;7.13;;
40339;SDS011;26044;50.864;20.658;2022-08-19T13:39:03;16.08;;;7.90;;
40339;SDS011;26044;50.864;20.658;2022-08-19T13:41:31;17.20;;;7.97;;
40339;SDS011;26044;50.864;20.658;2022-08-19T13:44:00;14.67;;;7.40;;
40339;SDS011;26044;50.864;20.658;2022-08-19T13:46:28;17.50;;;8.07;;
40339;SDS011;26044;50.864;20.658;2022-08-19T13:48:56;17.08;;;7.53;;
40339;SDS011;26044;50.864;20.658;2022-08-19T13:51:23;15.10;;;7.53;;
40339;SDS011;26044;50.864;20.658;2022-08-19T13:53:50;14.05;;;7.32;;
40339;SDS011;26044;50.864;20.658;2022-08-19T13:56:17;16.48;;;7.43;;
40339;SDS011;26044;50.864;20.658;2022-08-19T13:58:51;18.33;;;7.95;;
40339;SDS011;26044;50.864;20.658;2022-08-19T14:01:23;16.65;;;7.18;;
40339;SDS011;26044;50.864;20.658;2022-08-19T14:03:50;14.52;;;7.55;;
40339;SDS011;26044;50.864;20.658;2022-08-19T14:06:17;13.82;;;7.07;;
40339;SDS011;26044;50.864;20.658;2022-08-19T14:08:44;15.98;;;7.68;;
40339;SDS011;26044;50.864;20.658;2022-08-19T14:11:12;16.42;;;8.18;;
40339;SDS011;26044;50.864;20.658;2022-08-19T14:13:40;17.50;;;8.00;;
40339;SDS011;26044;50.864;20.658;2022-08-19T14:16:09;19.67;;;8.25;;
40339;SDS011;26044;50.864;20.658;2022-08-19T14:18:39;16.45;;;7.68;;
40339;SDS011;26044;50.864;20.658;2022-08-19T14:21:06;17.45;;;8.07;;
40339;SDS011;26044;50.864;20.658;2022-08-19T14:23:34;15.32;;;7.45;;
40339;SDS011;26044;50.864;20.658;2022-08-19T14:26:03;13.90;;;7.35;;
40339;SDS011;26044;50.864;20.658;2022-08-19T14:28:31;14.27;;;7.60;;
40339;SDS011;26044;50.864;20.658;2022-08-19T14:30:58;16.13;;;7.43;;
40339;SDS011;26044;50.864;20.658;2022-08-19T14:33:25;15.45;;;7.80;;
40339;SDS011;26044;50.864;20.658;2022-08-19T14:35:55;17.15;;;7.55;;
40339;SDS011;26044;50.864;20.658;2022-08-19T14:38:25;16.98;;;7.45;;
40339;SDS011;26044;50.864;20.658;2022-08-19T14:43:53;15.80;;;7.30;;
40339;SDS011;26044;50.864;20.658;2022-08-19T14:46:21;17.30;;;7.20;;
40339;SDS011;26044;50.864;20.658;2022-08-19T14:48:53;16.58;;;7.80;;
40339;SDS011;26044;50.864;20.658;2022-08-19T14:51:36;14.35;;;7.28;;
40339;SDS011;26044;50.864;20.658;2022-08-19T14:54:03;16.75;;;7.70;;
40339;SDS011;26044;50.864;20.658;2022-08-19T14:56:30;14.70;;;7.35;;
40339;SDS011;26044;50.864;20.658;2022-08-19T14:58:57;19.58;;;7.20;;
40339;SDS011;26044;50.864;20.658;2022-08-19T15:03:53;16.40;;;7.88;;
40339;SDS011;26044;50.864;20.658;2022-08-19T15:06:21;14.77;;;6.97;;
40339;SDS011;26044;50.864;20.658;2022-08-19T15:08:49;16.77;;;8.53;;
40339;SDS011;26044;50.864;20.658;2022-08-19T15:11:18;19.80;;;9.20;;
40339;SDS011;26044;50.864;20.658;2022-08-19T15:13:47;18.70;;;8.18;;
40339;SDS011;26044;50.864;20.658;2022-08-19T15:16:16;19.33;;;9.45;;
40339;SDS011;26044;50.864;20.658;2022-08-19T15:18:44;16.30;;;7.90;;
40339;SDS011;26044;50.864;20.658;2022-08-19T15:21:12;16.63;;;8.07;;
40339;SDS011;26044;50.864;20.658;2022-08-19T15:23:52;18.23;;;8.25;;
40339;SDS011;26044;50.864;20.658;2022-08-19T15:26:19;19.73;;;8.52;;
40339;SDS011;26044;50.864;20.658;2022-08-19T15:28:46;16.75;;;7.68;;
40339;SDS011;26044;50.864;20.658;2022-08-19T15:31:16;19.52;;;8.05;;
40339;SDS011;26044;50.864;20.658;2022-08-19T15:33:54;17.10;;;8.30;;
40339;SDS011;26044;50.864;20.658;2022-08-19T15:36:23;16.60;;;8.20;;
40339;SDS011;26044;50.864;20.658;2022-08-19T15:38:51;19.85;;;8.23;;
40339;SDS011;26044;50.864;20.658;2022-08-19T15:41:19;16.88;;;7.57;;
40339;SDS011;26044;50.864;20.658;2022-08-19T15:46:27;18.20;;;7.93;;
40339;SDS011;26044;50.864;20.658;2022-08-19T15:48:56;18.65;;;8.32;;
40339;SDS011;26044;50.864;20.658;2022-08-19T15:51:26;15.00;;;7.45;;
40339;SDS011;26044;50.864;20.658;2022-08-19T15:53:55;19.02;;;7.85;;
40339;SDS011;26044;50.864;20.658;2022-08-19T15:56:24;22.90;;;8.73;;